createdAt,value
2018-06-16T00:00:59.722Z,4.67
2018-06-16T00:03:28.075Z,5.20
2018-06-16T00:05:56.414Z,5.73
2018-06-16T00:08:24.779Z,5.63
2018-06-16T00:10:53.235Z,5.87
2018-06-16T00:13:21.616Z,6.03
2018-06-16T00:15:49.970Z,5.67
2018-06-16T00:18:18.336Z,6.17
2018-06-16T00:20:46.689Z,6.30
2018-06-16T00:23:15.052Z,8.00
2018-06-16T00:25:43.540Z,7.80
2018-06-16T00:28:11.940Z,8.73
2018-06-16T00:30:40.562Z,8.73
2018-06-16T00:33:08.945Z,9.00
2018-06-16T00:35:37.306Z,8.83
2018-06-16T00:38:05.841Z,8.33
2018-06-16T00:40:34.528Z,7.93
2018-06-16T00:43:03.051Z,10.83
2018-06-16T00:45:31.598Z,7.73
2018-06-16T00:48:00.000Z,7.37
2018-06-16T00:50:28.466Z,8.17
2018-06-16T00:52:57.027Z,7.90
2018-06-16T00:55:25.466Z,7.50
2018-06-16T00:57:53.862Z,9.00
2018-06-16T01:00:22.242Z,8.25
2018-06-16T01:02:50.630Z,7.73
2018-06-16T01:05:19.062Z,9.70
2018-06-16T01:07:47.462Z,6.73
2018-06-16T01:10:16.245Z,6.93
2018-06-16T01:12:44.733Z,6.53
2018-06-16T01:15:13.089Z,7.87
2018-06-16T01:17:41.611Z,8.23
2018-06-16T01:20:10.108Z,7.97
2018-06-16T01:22:38.482Z,7.37
2018-06-16T01:25:06.837Z,8.90
2018-06-16T01:27:35.343Z,5.93
2018-06-16T01:30:03.778Z,5.63
2018-06-16T01:32:32.422Z,5.30
2018-06-16T01:35:00.841Z,6.07
2018-06-16T01:37:29.496Z,5.20
2018-06-16T01:39:57.958Z,5.00
2018-06-16T01:42:26.312Z,5.00
2018-06-16T01:44:55.654Z,5.63
2018-06-16T01:47:24.111Z,5.67
2018-06-16T01:49:52.605Z,5.17
2018-06-16T01:52:21.094Z,5.83
2018-06-16T01:54:49.553Z,7.58
2018-06-16T01:57:19.601Z,8.40
2018-06-16T01:59:48.015Z,10.00
2018-06-16T02:02:16.383Z,11.50
2018-06-16T02:04:44.946Z,10.67
2018-06-16T02:07:13.291Z,11.70
2018-06-16T02:09:41.667Z,10.93
2018-06-16T02:12:10.046Z,9.90
2018-06-16T02:14:38.488Z,9.47
2018-06-16T02:17:06.846Z,7.83
2018-06-16T02:19:35.276Z,6.53
2018-06-16T02:22:03.669Z,6.30
2018-06-16T02:24:32.105Z,7.20
2018-06-16T02:27:00.469Z,6.43
2018-06-16T02:29:28.846Z,6.53
2018-06-16T02:31:57.787Z,6.57
2018-06-16T02:34:26.225Z,5.70
2018-06-16T02:36:54.638Z,5.43
2018-06-16T02:39:23.065Z,5.47
2018-06-16T02:41:51.609Z,5.57
2018-06-16T02:44:19.982Z,5.40
2018-06-16T02:46:48.634Z,5.77
2018-06-16T02:49:17.019Z,5.40
2018-06-16T02:51:45.430Z,6.43
2018-06-16T02:54:14.205Z,5.90
2018-06-16T02:56:42.662Z,6.27
2018-06-16T03:00:14.276Z,6.60
2018-06-16T03:02:42.753Z,6.10
2018-06-16T03:05:11.138Z,6.67
2018-06-16T03:07:39.494Z,6.53
2018-06-16T03:10:07.886Z,6.37
2018-06-16T03:12:36.299Z,5.83
2018-06-16T03:15:04.771Z,6.03
2018-06-16T03:17:33.075Z,6.93
2018-06-16T03:20:01.455Z,6.83
2018-06-16T03:22:29.853Z,6.33
2018-06-16T03:24:58.350Z,6.83
2018-06-16T03:27:26.755Z,6.30
2018-06-16T03:29:55.185Z,6.00
2018-06-16T03:32:23.770Z,7.70
2018-06-16T03:34:52.141Z,8.40
2018-06-16T03:37:21.481Z,7.63
2018-06-16T03:39:50.180Z,7.33
2018-06-16T03:42:18.534Z,7.23
2018-06-16T03:44:46.937Z,6.83
2018-06-16T03:47:15.282Z,7.73
2018-06-16T03:49:43.670Z,10.83
2018-06-16T03:52:12.030Z,10.60
2018-06-16T03:54:40.380Z,9.70
2018-06-16T03:57:08.883Z,10.93
2018-06-16T03:59:37.296Z,9.17
2018-06-16T04:02:05.721Z,9.17
2018-06-16T04:04:34.102Z,9.17
2018-06-16T04:07:02.659Z,8.73
2018-06-16T04:09:31.038Z,8.13
2018-06-16T04:11:59.446Z,8.33
2018-06-16T04:14:27.983Z,8.13
2018-06-16T04:16:56.361Z,9.07
2018-06-16T04:19:25.053Z,10.17
2018-06-16T04:21:53.422Z,9.53
2018-06-16T04:24:21.774Z,11.57
2018-06-16T04:26:50.189Z,11.30
2018-06-16T04:29:18.581Z,10.50
2018-06-16T04:31:46.959Z,10.65
2018-06-16T04:34:15.355Z,12.13
2018-06-16T04:36:43.936Z,9.93
2018-06-16T04:39:12.343Z,8.37
2018-06-16T04:41:40.735Z,10.23
2018-06-16T04:44:09.097Z,10.23
2018-06-16T04:46:37.759Z,11.33
2018-06-16T04:49:06.144Z,10.30
2018-06-16T04:51:34.826Z,9.05
2018-06-16T04:54:03.343Z,10.32
2018-06-16T04:56:31.951Z,8.50
2018-06-16T04:59:00.893Z,8.93
2018-06-16T05:01:29.311Z,9.23
2018-06-16T05:03:57.681Z,9.53
2018-06-16T05:06:26.092Z,8.73
2018-06-16T05:08:54.427Z,7.40
2018-06-16T05:11:22.808Z,7.67
2018-06-16T05:13:51.172Z,8.70
2018-06-16T05:16:19.754Z,7.90
2018-06-16T05:18:48.114Z,8.90
2018-06-16T05:21:16.528Z,8.35
2018-06-16T05:23:44.876Z,8.98
2018-06-16T05:26:13.466Z,7.87
2018-06-16T05:28:41.887Z,7.87
2018-06-16T05:31:10.265Z,7.53
2018-06-16T05:33:38.733Z,8.73
2018-06-16T05:36:07.121Z,9.03
2018-06-16T05:38:35.479Z,8.40
2018-06-16T05:41:03.923Z,8.58
2018-06-16T05:43:32.302Z,7.65
2018-06-16T05:46:00.691Z,7.70
2018-06-16T05:48:29.090Z,7.70
2018-06-16T05:50:57.465Z,7.58
2018-06-16T05:53:25.962Z,5.80
2018-06-16T05:55:54.322Z,6.22
2018-06-16T05:58:22.692Z,6.72
2018-06-16T06:00:51.213Z,6.45
2018-06-16T06:03:19.687Z,6.50
2018-06-16T06:05:48.047Z,8.48
2018-06-16T06:08:16.432Z,7.42
2018-06-16T06:10:44.889Z,8.05
2018-06-16T06:13:13.330Z,7.67
2018-06-16T06:15:41.750Z,8.43
2018-06-16T06:18:10.085Z,9.83
2018-06-16T06:20:38.561Z,8.58
2018-06-16T06:23:06.954Z,8.05
2018-06-16T06:25:35.294Z,8.70
2018-06-16T06:28:03.668Z,8.70
2018-06-16T06:30:32.109Z,7.47
2018-06-16T06:33:00.504Z,9.73
2018-06-16T06:35:28.947Z,8.68
2018-06-16T06:37:57.367Z,9.73
2018-06-16T06:40:25.580Z,8.10
2018-06-16T06:42:53.982Z,10.63
2018-06-16T06:45:22.573Z,8.60
2018-06-16T06:47:50.951Z,8.55
2018-06-16T06:50:19.028Z,7.90
2018-06-16T06:52:47.721Z,7.97
2018-06-16T06:55:16.097Z,9.43
2018-06-16T06:57:44.492Z,8.75
2018-06-16T07:00:12.955Z,9.05
2018-06-16T07:02:41.527Z,8.90
2018-06-16T07:05:09.891Z,9.53
2018-06-16T07:07:38.417Z,10.68
2018-06-16T07:10:06.788Z,9.30
2018-06-16T07:12:35.163Z,8.28
2018-06-16T07:15:03.629Z,11.45
2018-06-16T07:17:31.970Z,11.80
2018-06-16T07:20:00.373Z,10.72
2018-06-16T07:22:28.721Z,10.72
2018-06-16T07:24:57.590Z,9.70
2018-06-16T07:27:25.910Z,10.82
2018-06-16T07:29:54.526Z,11.25
2018-06-16T07:32:22.898Z,11.38
2018-06-16T07:34:51.350Z,11.35
2018-06-16T07:37:19.818Z,11.15
2018-06-16T07:39:48.254Z,12.25
2018-06-16T07:42:16.647Z,11.05
2018-06-16T07:44:45.035Z,12.37
2018-06-16T07:47:13.435Z,12.07
2018-06-16T07:49:42.301Z,11.53
2018-06-16T07:52:10.671Z,11.28
2018-06-16T07:54:39.190Z,11.50
2018-06-16T07:57:07.561Z,12.28
2018-06-16T07:59:35.921Z,9.13
2018-06-16T08:02:04.335Z,11.43
2018-06-16T08:04:34.317Z,10.10
2018-06-16T08:07:02.746Z,7.45
2018-06-16T08:09:31.159Z,8.85
2018-06-16T08:11:59.675Z,8.03
2018-06-16T08:14:28.072Z,7.00
2018-06-16T08:16:56.439Z,6.87
2018-06-16T08:19:24.979Z,8.88
2018-06-16T08:21:53.484Z,10.85
2018-06-16T08:24:21.928Z,11.90
2018-06-16T08:26:50.374Z,13.90
2018-06-16T08:29:18.914Z,8.93
2018-06-16T08:31:47.328Z,7.95
2018-06-16T08:34:15.820Z,7.70
2018-06-16T08:36:44.230Z,11.53
2018-06-16T08:39:13.047Z,9.58
2018-06-16T08:41:41.993Z,7.37
2018-06-16T08:44:10.553Z,12.47
2018-06-16T08:46:39.087Z,8.85
2018-06-16T08:49:09.302Z,10.80
2018-06-16T08:51:39.612Z,9.63
2018-06-16T08:54:10.728Z,11.97
2018-06-16T08:56:39.214Z,9.50
2018-06-16T08:59:07.734Z,10.98
2018-06-16T09:01:36.156Z,8.50
2018-06-16T09:04:04.498Z,8.40
2018-06-16T09:06:32.946Z,9.43
2018-06-16T09:09:01.012Z,9.70
2018-06-16T09:11:29.451Z,9.68
2018-06-16T09:13:57.829Z,7.45
2018-06-16T09:16:26.544Z,7.40
2018-06-16T09:18:55.173Z,8.93
2018-06-16T09:21:23.664Z,7.58
2018-06-16T09:23:52.149Z,6.75
2018-06-16T09:26:24.489Z,9.25
2018-06-16T09:28:53.770Z,10.72
2018-06-16T09:31:22.182Z,7.50
2018-06-16T09:33:50.299Z,9.63
2018-06-16T09:36:19.038Z,8.48
2018-06-16T09:38:47.746Z,5.95
2018-06-16T09:41:16.226Z,9.35
2018-06-16T09:43:44.637Z,9.43
2018-06-16T09:46:13.048Z,6.90
2018-06-16T09:48:41.114Z,8.48
2018-06-16T09:51:09.570Z,10.23
2018-06-16T09:53:39.336Z,7.08
2018-06-16T09:56:09.104Z,6.83
2018-06-16T09:58:38.874Z,7.15
2018-06-16T10:01:08.546Z,5.47
2018-06-16T10:03:37.512Z,6.97
2018-06-16T10:06:06.216Z,5.58
2018-06-16T10:08:35.021Z,5.60
2018-06-16T10:11:03.480Z,6.33
2018-06-16T10:13:32.154Z,5.87
2018-06-16T10:16:00.648Z,6.28
2018-06-16T10:18:29.054Z,4.60
2018-06-16T10:20:57.626Z,4.35
2018-06-16T10:23:26.406Z,4.87
2018-06-16T10:25:55.124Z,3.75
2018-06-16T10:28:23.778Z,3.17
2018-06-16T10:30:52.213Z,3.55
2018-06-16T10:33:20.892Z,3.67
2018-06-16T10:35:49.308Z,3.40
2018-06-16T10:38:17.824Z,3.58
2018-06-16T10:40:46.499Z,3.98
2018-06-16T10:43:14.842Z,2.80
2018-06-16T10:45:43.232Z,2.92
2018-06-16T10:48:12.201Z,3.10
2018-06-16T10:50:40.619Z,3.15
2018-06-16T10:53:09.137Z,4.45
2018-06-16T10:55:37.721Z,3.47
2018-06-16T10:58:07.187Z,3.05
2018-06-16T11:00:35.698Z,4.37
2018-06-16T11:03:04.262Z,3.00
2018-06-16T11:05:32.650Z,3.47
2018-06-16T11:08:01.183Z,3.05
2018-06-16T11:10:29.697Z,4.12
2018-06-16T11:12:58.989Z,2.80
2018-06-16T11:15:27.610Z,2.90
2018-06-16T11:17:55.981Z,2.77
2018-06-16T11:20:24.319Z,2.80
2018-06-16T11:22:52.749Z,2.98
2018-06-16T11:25:21.234Z,2.75
2018-06-16T11:27:49.948Z,2.90
2018-06-16T11:30:18.415Z,2.90
2018-06-16T11:32:46.628Z,2.52
2018-06-16T11:35:15.009Z,2.50
2018-06-16T11:37:43.539Z,3.50
2018-06-16T11:40:12.503Z,2.72
2018-06-16T11:42:41.043Z,2.70
2018-06-16T11:45:09.784Z,2.42
2018-06-16T11:47:38.242Z,2.60
2018-06-16T11:50:06.827Z,2.87
2018-06-16T11:52:35.277Z,3.10
2018-06-16T11:55:05.052Z,2.98
2018-06-16T11:57:34.671Z,3.12
2018-06-16T12:00:04.520Z,3.20
2018-06-16T12:02:34.564Z,3.35
2018-06-16T12:05:03.997Z,3.55
2018-06-16T12:07:32.558Z,3.12
2018-06-16T12:10:00.986Z,2.72
2018-06-16T12:12:29.422Z,4.45
2018-06-16T12:14:57.924Z,3.77
2018-06-16T12:17:26.337Z,4.28
2018-06-16T12:19:55.759Z,2.90
2018-06-16T12:22:24.344Z,3.75
2018-06-16T12:24:52.738Z,2.80
2018-06-16T12:27:21.142Z,2.92
2018-06-16T12:29:49.605Z,3.00
2018-06-16T12:32:18.024Z,3.20
2018-06-16T12:34:46.481Z,2.70
2018-06-16T12:37:14.908Z,2.90
2018-06-16T12:39:43.085Z,2.80
2018-06-16T12:42:11.569Z,2.75
2018-06-16T12:44:40.008Z,2.98
2018-06-16T12:47:08.334Z,3.02
2018-06-16T12:49:36.831Z,3.60
2018-06-16T12:52:05.249Z,3.92
2018-06-16T12:54:33.762Z,2.90
2018-06-16T12:57:02.260Z,3.37
2018-06-16T12:59:30.588Z,2.70
2018-06-16T13:01:59.109Z,2.30
2018-06-16T13:04:27.498Z,2.72
2018-06-16T13:06:55.890Z,2.75
2018-06-16T13:09:24.261Z,2.42
2018-06-16T13:11:52.638Z,3.05
2018-06-16T13:14:21.202Z,2.42
2018-06-16T13:16:49.551Z,2.67
2018-06-16T13:19:18.061Z,3.40
2018-06-16T13:21:46.666Z,2.92
2018-06-16T13:24:15.168Z,3.20
2018-06-16T13:26:43.731Z,2.90
2018-06-16T13:29:12.596Z,2.67
2018-06-16T13:31:41.016Z,2.65
2018-06-16T13:34:09.497Z,2.83
2018-06-16T13:36:37.873Z,2.45
2018-06-16T13:39:08.464Z,2.60
2018-06-16T13:41:36.818Z,2.83
2018-06-16T13:44:05.312Z,3.45
2018-06-16T13:46:33.703Z,3.25
2018-06-16T13:49:02.130Z,2.40
2018-06-16T13:51:30.665Z,2.70
2018-06-16T13:53:59.108Z,2.42
2018-06-16T13:56:27.499Z,2.45
2018-06-16T13:58:56.070Z,3.22
2018-06-16T14:01:24.470Z,3.22
2018-06-16T14:03:53.018Z,3.12
2018-06-16T14:06:21.407Z,2.92
2018-06-16T14:08:49.983Z,2.90
2018-06-16T14:11:18.464Z,3.85
2018-06-16T14:13:47.128Z,2.65
2018-06-16T14:16:15.573Z,3.20
2018-06-16T14:18:44.028Z,3.65
2018-06-16T14:21:12.983Z,3.05
2018-06-16T14:23:41.653Z,2.60
2018-06-16T14:26:10.131Z,2.40
2018-06-16T14:28:39.626Z,2.40
2018-06-16T14:31:08.077Z,2.72
2018-06-16T14:33:36.462Z,2.85
2018-06-16T14:36:05.234Z,2.98
2018-06-16T14:38:34.013Z,2.83
2018-06-16T14:41:02.867Z,2.98
2018-06-16T14:43:31.312Z,2.70
2018-06-16T14:45:59.787Z,2.85
2018-06-16T14:48:28.230Z,3.08
2018-06-16T14:50:56.658Z,3.30
2018-06-16T14:53:25.195Z,3.08
2018-06-16T14:55:53.660Z,2.60
2018-06-16T14:58:28.424Z,2.25
2018-06-16T15:00:58.038Z,3.05
2018-06-16T15:03:26.495Z,3.40
2018-06-16T15:05:55.284Z,2.70
2018-06-16T15:08:23.726Z,3.87
2018-06-16T15:10:53.036Z,2.70
2018-06-16T15:13:22.294Z,2.58
2018-06-16T15:15:51.170Z,2.47
2018-06-16T15:18:19.541Z,2.85
2018-06-16T15:20:48.035Z,2.87
2018-06-16T15:23:16.634Z,2.30
2018-06-16T15:25:45.227Z,2.30
2018-06-16T15:28:14.039Z,2.60
2018-06-16T15:30:42.454Z,2.75
2018-06-16T15:33:11.979Z,2.50
2018-06-16T15:35:40.674Z,3.17
2018-06-16T15:38:09.090Z,2.90
2018-06-16T15:40:37.595Z,3.33
2018-06-16T15:43:06.148Z,3.40
2018-06-16T15:45:34.692Z,3.30
2018-06-16T15:48:03.055Z,3.55
2018-06-16T15:50:31.509Z,3.92
2018-06-16T15:52:59.941Z,3.70
2018-06-16T15:55:28.447Z,3.22
2018-06-16T15:57:56.970Z,3.70
2018-06-16T16:00:25.479Z,4.22
2018-06-16T16:02:54.512Z,3.47
2018-06-16T16:05:23.079Z,4.05
2018-06-16T16:07:51.870Z,3.90
2018-06-16T16:10:20.534Z,3.80
2018-06-16T16:12:48.935Z,3.47
2018-06-16T16:15:17.485Z,3.55
2018-06-16T16:17:45.881Z,3.83
2018-06-16T16:20:14.402Z,3.95
2018-06-16T16:22:43.049Z,3.45
2018-06-16T16:25:11.648Z,3.67
2018-06-16T16:27:40.085Z,3.52
2018-06-16T16:30:08.495Z,3.65
2018-06-16T16:32:36.938Z,3.42
2018-06-16T16:35:05.318Z,3.70
2018-06-16T16:37:33.790Z,3.55
2018-06-16T16:40:02.201Z,3.80
2018-06-16T16:42:30.698Z,4.50
2018-06-16T16:44:59.092Z,4.40
2018-06-16T16:47:27.708Z,4.33
2018-06-16T16:49:56.201Z,4.85
2018-06-16T16:52:24.658Z,5.15
2018-06-16T16:54:53.811Z,5.40
2018-06-16T16:57:22.479Z,4.67
2018-06-16T16:59:50.916Z,4.33
2018-06-16T17:02:19.932Z,5.10
2018-06-16T17:04:48.279Z,4.70
2018-06-16T17:07:16.769Z,4.25
2018-06-16T17:09:45.133Z,4.28
2018-06-16T17:12:13.559Z,4.03
2018-06-16T17:14:42.520Z,4.12
2018-06-16T17:17:10.919Z,3.70
2018-06-16T17:19:39.287Z,3.67
2018-06-16T17:22:07.720Z,3.60
2018-06-16T17:24:36.148Z,3.80
2018-06-16T17:27:04.823Z,3.90
2018-06-16T17:29:33.181Z,3.72
2018-06-16T17:32:01.615Z,3.60
2018-06-16T17:34:30.199Z,3.58
2018-06-16T17:36:58.666Z,3.87
2018-06-16T17:39:27.625Z,3.42
2018-06-16T17:41:56.049Z,4.10
2018-06-16T17:44:24.455Z,4.20
2018-06-16T17:46:52.878Z,3.52
2018-06-16T17:49:21.315Z,3.62
2018-06-16T17:51:49.803Z,3.65
2018-06-16T17:54:18.262Z,3.62
2018-06-16T17:56:46.665Z,4.78
2018-06-16T17:59:15.212Z,3.80
2018-06-16T18:01:43.928Z,4.30
2018-06-16T18:04:12.392Z,4.60
2018-06-16T18:06:40.992Z,4.20
2018-06-16T18:09:10.956Z,4.35
2018-06-16T18:11:39.463Z,4.22
2018-06-16T18:14:08.151Z,4.17
2018-06-16T18:16:36.518Z,4.33
2018-06-16T18:19:04.990Z,4.10
2018-06-16T18:21:33.801Z,4.30
2018-06-16T18:24:02.434Z,4.55
2018-06-16T18:26:31.063Z,4.40
2018-06-16T18:28:59.536Z,4.70
2018-06-16T18:31:27.989Z,4.28
2018-06-16T18:33:56.120Z,5.47
2018-06-16T18:36:24.473Z,5.37
2018-06-16T18:38:52.734Z,5.10
2018-06-16T18:41:21.424Z,5.17
2018-06-16T18:43:50.060Z,5.80
2018-06-16T18:46:18.616Z,5.90
2018-06-16T18:48:47.085Z,6.17
2018-06-16T18:51:15.437Z,5.97
2018-06-16T18:53:43.933Z,6.28
2018-06-16T18:56:12.637Z,6.12
2018-06-16T18:58:41.047Z,5.47
2018-06-16T19:01:09.623Z,6.20
2018-06-16T19:03:37.941Z,6.50
2018-06-16T19:06:06.487Z,5.42
2018-06-16T19:08:35.059Z,5.42
2018-06-16T19:11:03.704Z,7.35
2018-06-16T19:13:32.448Z,6.60
2018-06-16T19:16:00.903Z,6.62
2018-06-16T19:18:29.359Z,8.28
2018-06-16T19:20:57.757Z,7.47
2018-06-16T19:23:26.231Z,8.20
2018-06-16T19:25:54.619Z,6.67
2018-06-16T19:28:23.691Z,6.90
2018-06-16T19:30:52.398Z,7.25
2018-06-16T19:33:21.015Z,6.95
2018-06-16T19:35:50.447Z,7.53
2018-06-16T19:38:18.831Z,8.58
2018-06-16T19:40:47.294Z,8.60
2018-06-16T19:43:15.819Z,8.00
2018-06-16T19:45:44.275Z,9.35
2018-06-16T19:48:13.314Z,8.20
2018-06-16T19:50:41.770Z,8.40
2018-06-16T19:53:10.731Z,7.55
2018-06-16T19:55:39.140Z,7.15
2018-06-16T19:58:07.325Z,9.03
2018-06-16T20:00:35.799Z,9.30
2018-06-16T20:03:06.118Z,9.10
2018-06-16T20:06:06.090Z,8.20
2018-06-16T20:08:36.034Z,8.28
2018-06-16T20:11:04.539Z,7.97
2018-06-16T20:13:33.002Z,9.10
2018-06-16T20:16:01.753Z,9.35
2018-06-16T20:18:30.194Z,9.35
2018-06-16T20:20:59.460Z,9.33
2018-06-16T20:23:28.163Z,8.70
2018-06-16T20:25:57.247Z,7.75
2018-06-16T20:28:27.166Z,6.97
2018-06-16T20:30:55.769Z,7.08
2018-06-16T20:33:24.258Z,7.17
2018-06-16T20:35:52.876Z,7.65
2018-06-16T20:38:21.560Z,7.47
2018-06-16T20:40:51.467Z,7.50
2018-06-16T20:43:19.985Z,8.05
2018-06-16T20:45:49.097Z,8.53
2018-06-16T20:48:17.720Z,9.70
2018-06-16T20:50:46.395Z,9.95
2018-06-16T20:53:15.963Z,9.23
2018-06-16T20:55:44.567Z,8.13
2018-06-16T20:58:13.438Z,8.45
2018-06-16T21:00:41.869Z,7.85
2018-06-16T21:03:11.183Z,7.53
2018-06-16T21:05:40.691Z,8.30
2018-06-16T21:08:09.037Z,6.80
2018-06-16T21:10:38.036Z,6.25
2018-06-16T21:13:07.281Z,5.90
2018-06-16T21:15:36.459Z,5.12
2018-06-16T21:18:06.383Z,5.90
2018-06-16T21:20:34.814Z,4.83
2018-06-16T21:23:03.578Z,6.85
2018-06-16T21:25:32.969Z,4.45
2018-06-16T21:28:01.632Z,3.95
2018-06-16T21:30:30.482Z,3.62
2018-06-16T21:32:58.984Z,5.47
2018-06-16T21:35:27.332Z,3.52
2018-06-16T21:37:55.746Z,3.80
2018-06-16T21:40:24.150Z,3.72
2018-06-16T21:42:52.496Z,4.92
2018-06-16T21:45:20.858Z,3.60
2018-06-16T21:47:49.545Z,4.15
2018-06-16T21:50:17.887Z,3.40
2018-06-16T21:52:46.230Z,4.53
2018-06-16T21:55:14.673Z,3.05
2018-06-16T21:57:43.099Z,5.15
2018-06-16T22:00:13.298Z,3.20
2018-06-16T22:02:42.394Z,3.52
2018-06-16T22:05:10.770Z,3.75
2018-06-16T22:07:39.325Z,3.42
2018-06-16T22:10:08.791Z,3.62
2018-06-16T22:12:37.219Z,3.52
2018-06-16T22:15:05.779Z,3.05
2018-06-16T22:17:34.206Z,3.58
2018-06-16T22:20:02.655Z,3.67
2018-06-16T22:22:31.150Z,4.45
2018-06-16T22:24:59.514Z,3.72
2018-06-16T22:27:27.996Z,5.35
2018-06-16T22:29:56.483Z,3.27
2018-06-16T22:32:24.908Z,3.60
2018-06-16T22:34:53.510Z,5.72
2018-06-16T22:37:21.898Z,3.83
2018-06-16T22:39:50.294Z,3.50
2018-06-16T22:42:18.777Z,3.33
2018-06-16T22:44:47.130Z,3.47
2018-06-16T22:47:16.332Z,3.58
2018-06-16T22:49:44.705Z,3.40
2018-06-16T22:52:13.166Z,3.58
2018-06-16T22:54:41.547Z,4.78
2018-06-16T22:57:10.128Z,3.47
2018-06-16T22:59:38.622Z,4.05
2018-06-16T23:02:07.009Z,3.27
2018-06-16T23:04:35.401Z,3.22
2018-06-16T23:07:03.801Z,3.22
2018-06-16T23:09:32.220Z,2.98
2018-06-16T23:12:00.611Z,3.27
2018-06-16T23:14:28.958Z,3.17
2018-06-16T23:16:57.369Z,3.75
2018-06-16T23:19:26.023Z,3.50
2018-06-16T23:21:54.443Z,3.12
2018-06-16T23:24:22.794Z,4.40
2018-06-16T23:26:51.186Z,3.60
2018-06-16T23:29:19.511Z,4.75
2018-06-16T23:31:47.872Z,5.00
2018-06-16T23:34:16.242Z,4.30
2018-06-16T23:36:44.702Z,4.67
2018-06-16T23:39:13.537Z,4.33
2018-06-16T23:41:42.462Z,7.78
2018-06-16T23:44:10.843Z,11.63
2018-06-16T23:46:39.286Z,8.25
2018-06-16T23:49:07.678Z,6.70
2018-06-16T23:51:36.066Z,3.27
2018-06-16T23:54:04.550Z,4.00
2018-06-16T23:56:32.909Z,3.92
2018-06-16T23:59:01.263Z,3.30
